Montague, TX

01:10 PM CDT ar Hydref 25, 2014 (GMT -0500)
State Hwy 59 North | Change Station
CLOSE
Current Station
Personal Weather Stations
Location: Montague, TX
Elevation: 1083 ft
Nearby Weather Stations

Elev 1083 ft 33.66 °N, 97.70 °W | Updated 6 seconds ago

Clir
Clir
83.4 °F
Feels Like 84 °F
N
4.0
Gwynt Cyfnewidiol Gwynt from Gorllewin
Gusts 10.0 mph

Heddiw
High -- | Low -- °F
--% Chance of Precip.
Yesterday
High -- | Low -- °F
Precip. -- mod
7:43 AM 6:45 PM
Waxing Crescent, 4% visible
Gwasgedd 30.12 mod
Gwelededd 10.0 Milltiroedd
Clouds Clir
Mynegrif Gwres 84 °F
Gwlithbwynt 63 °F
Lleithder 50%
Rainfall 0.00 mod
Snow Depth Not available.
UV 6 out of 12
Pollen 5.60 out of 12
Air Quality Not available.
Flu Activity Local Activity
METAR K0F2 251755Z AUTO 23007KT 10SM CLR 29/15 A3012 RMK AO2 T02890153 10289 20145

More Conditions Fewer Conditions

Gwasgedd 30.12 mod
Gwelededd 10.0 Milltiroedd
Clouds Clir
Mynegrif Gwres 84 °F
Gwlithbwynt 63 °F
Lleithder 50%
Rainfall 0.00 mod
Snow Depth Not available.
UV 6 out of 12
Pollen 5.60 out of 12
Air Quality Not available.
Flu Activity Local Activity
METAR K0F2 251755Z AUTO 23007KT 10SM CLR 29/15 A3012 RMK AO2 T02890153 10289 20145

More Conditions Fewer Conditions

10-Day Weather Forecast

Almanac

Astronomy

Oct. 25, 2014 Rise Set
Actual Time 7:43 AM CDT 6:45 PM CDT
Civil Twilight 7:18 AM CDT 7:10 PM CDT
Nautical Twilight 6:49 AM CDT 7:40 PM CDT
Astronomical Twilight 6:20 AM CDT 8:09 PM CDT
Moon 9:20 AM CDT 8:13 PM CDT
Length Of Visible Light 11h 52m
Length of Day
11h 01m
Tomorrow will be 1m 54s shorter.
Waxing Crescent, 4% of the Moon is Illuminated
Heddiw
Waxing Crescent
Oct 30
First Quarter
Nov 6
Full
Nov 14
Last Quarter
Nov 22
New

Today's Extremes

State Highs State Lows

Community

WunderPhotos

Upload Photos

1,764,928 photos uploaded!

Nearby

Snow Depth

Station Depth Elevation
No new snow has been reported.

Earthquake Activity

City Distance Mag. Time & Date
Jones, Oklahoma 134 Milltiroedd 3.0 12:10 PM CDT
2014-10-25
Luther, Oklahoma 136 Milltiroedd 2.5 10:36 PM CDT
2014-10-22
Minimum magnitude displayed is 2.5.

Coastal Water Temperatures

Lle Tymheredd
No Stations Reporting

Nearby Weather Stations